createdAt,value
2017-02-15T00:00:07.723Z,1054.34
2017-02-15T00:01:07.704Z,1054.39
2017-02-15T00:02:07.687Z,1054.35
2017-02-15T00:03:07.671Z,1054.35
2017-02-15T00:04:07.658Z,1054.35
2017-02-15T00:05:07.641Z,1054.34
2017-02-15T00:06:07.622Z,1054.34
2017-02-15T00:07:07.606Z,1054.36
2017-02-15T00:08:07.592Z,1054.37
2017-02-15T00:09:07.576Z,1054.38
2017-02-15T00:10:07.557Z,1054.36
2017-02-15T00:11:07.541Z,1054.35
2017-02-15T00:12:07.524Z,1054.31
2017-02-15T00:13:07.505Z,1054.33
2017-02-15T00:14:07.494Z,1054.35
2017-02-15T00:15:07.474Z,1054.39
2017-02-15T00:16:07.459Z,1054.37
2017-02-15T00:17:07.441Z,1054.36
2017-02-15T00:18:07.426Z,1054.38
2017-02-15T00:19:07.410Z,1054.38
2017-02-15T00:20:07.391Z,1054.41
2017-02-15T00:21:07.375Z,1054.41
2017-02-15T00:22:07.356Z,1054.39
2017-02-15T00:23:07.342Z,1054.45
2017-02-15T00:24:07.322Z,1054.43
2017-02-15T00:25:07.309Z,1054.41
2017-02-15T00:26:07.292Z,1054.42
2017-02-15T00:27:07.272Z,1054.39
2017-02-15T00:28:07.258Z,1054.36
2017-02-15T00:29:07.241Z,1054.35
2017-02-15T00:30:07.223Z,1054.38
2017-02-15T00:31:07.206Z,1054.38
2017-02-15T00:32:07.191Z,1054.39
2017-02-15T00:33:07.175Z,1054.37
2017-02-15T00:34:07.158Z,1054.4
2017-02-15T00:35:07.141Z,1054.42
2017-02-15T00:36:07.125Z,1054.45
2017-02-15T00:37:07.107Z,1054.46
2017-02-15T00:38:07.092Z,1054.48
2017-02-15T00:39:07.072Z,1054.49
2017-02-15T00:40:07.057Z,1054.48
2017-02-15T00:41:07.043Z,1054.49
2017-02-15T00:42:07.024Z,1054.45
2017-02-15T00:43:07.006Z,1054.5
2017-02-15T00:44:06.987Z,1054.47
2017-02-15T00:45:06.976Z,1054.49
2017-02-15T00:46:06.955Z,1054.5
2017-02-15T00:47:06.938Z,1054.51
2017-02-15T00:48:06.920Z,1054.49
2017-02-15T00:49:06.910Z,1054.51
2017-02-15T00:50:06.890Z,1054.52
2017-02-15T00:51:06.874Z,1054.53
2017-02-15T00:52:06.858Z,1054.55
2017-02-15T00:53:06.839Z,1054.54
2017-02-15T00:54:06.821Z,1054.51
2017-02-15T00:55:06.809Z,1054.55
2017-02-15T00:56:06.791Z,1054.55
2017-02-15T00:57:06.777Z,1054.53
2017-02-15T00:58:06.759Z,1054.56
2017-02-15T00:59:06.737Z,1054.61
2017-02-15T01:00:06.726Z,1054.61
2017-02-15T01:01:06.705Z,1054.6
2017-02-15T01:02:06.688Z,1054.63
2017-02-15T01:03:06.671Z,1054.63
2017-02-15T01:04:06.658Z,1054.62
2017-02-15T01:05:06.641Z,1054.62
2017-02-15T01:06:06.624Z,1054.65
2017-02-15T01:07:06.609Z,1054.64
2017-02-15T01:08:06.587Z,1054.64
2017-02-15T01:09:06.571Z,1054.64
2017-02-15T01:10:06.557Z,1054.63
2017-02-15T01:11:06.540Z,1054.68
2017-02-15T01:12:06.521Z,1054.71
2017-02-15T01:13:06.503Z,1054.72
2017-02-15T01:14:06.487Z,1054.78
2017-02-15T01:15:06.475Z,1054.78
2017-02-15T01:16:06.456Z,1054.76
2017-02-15T01:17:06.439Z,1054.75
2017-02-15T01:18:06.420Z,1054.77
2017-02-15T01:19:06.406Z,1054.75
2017-02-15T01:20:06.394Z,1054.74
2017-02-15T01:21:06.368Z,1054.7
2017-02-15T01:22:06.355Z,1054.71
2017-02-15T01:23:06.340Z,1054.69
2017-02-15T01:24:06.321Z,1054.7
2017-02-15T01:25:06.302Z,1054.71
2017-02-15T01:26:06.289Z,1054.63
2017-02-15T01:27:06.268Z,1054.69
2017-02-15T01:28:06.252Z,1054.65
2017-02-15T01:29:06.235Z,1054.64
2017-02-15T01:30:06.223Z,1054.61
2017-02-15T01:31:06.202Z,1054.61
2017-02-15T01:32:06.184Z,1054.63
2017-02-15T01:33:06.167Z,1054.61
2017-02-15T01:34:06.150Z,1054.6
2017-02-15T01:35:06.133Z,1054.57
2017-02-15T01:36:06.117Z,1054.57
2017-02-15T01:37:06.100Z,1054.57
2017-02-15T01:38:06.086Z,1054.61
2017-02-15T01:39:06.069Z,1054.59
2017-02-15T01:40:06.052Z,1054.6
2017-02-15T01:41:06.036Z,1054.51
2017-02-15T01:42:06.019Z,1054.52
2017-02-15T01:43:06.002Z,1054.47
2017-02-15T01:44:05.989Z,1054.44
2017-02-15T01:45:05.966Z,1054.43
2017-02-15T01:46:05.948Z,1054.35
2017-02-15T01:47:05.935Z,1054.35
2017-02-15T01:48:05.916Z,1054.3
2017-02-15T01:49:05.899Z,1054.31
2017-02-15T01:50:05.884Z,1054.26
2017-02-15T01:51:05.864Z,1054.23
2017-02-15T01:52:05.850Z,1054.22
2017-02-15T01:53:05.831Z,1054.13
2017-02-15T01:54:05.816Z,1054.15
2017-02-15T01:55:05.797Z,1054.1
2017-02-15T01:56:05.783Z,1054.07
2017-02-15T01:57:05.763Z,1054.02
2017-02-15T01:58:05.749Z,1054
2017-02-15T01:59:05.730Z,1054.04
2017-02-15T02:00:05.715Z,1054
2017-02-15T02:01:05.695Z,1054
2017-02-15T02:02:05.682Z,1054.01
2017-02-15T02:03:05.666Z,1053.96
2017-02-15T02:04:05.646Z,1053.97
2017-02-15T02:05:05.632Z,1053.99
2017-02-15T02:06:05.615Z,1054.01
2017-02-15T02:07:05.595Z,1054.01
2017-02-15T02:08:05.580Z,1054.02
2017-02-15T02:09:05.561Z,1054.01
2017-02-15T02:10:05.545Z,1053.99
2017-02-15T02:11:05.531Z,1054.01
2017-02-15T02:12:05.514Z,1053.97
2017-02-15T02:13:05.494Z,1053.98
2017-02-15T02:14:05.476Z,1053.95
2017-02-15T02:15:05.464Z,1053.98
2017-02-15T02:16:05.445Z,1053.97
2017-02-15T02:17:05.427Z,1053.99
2017-02-15T02:18:05.412Z,1053.97
2017-02-15T02:19:05.395Z,1053.94
2017-02-15T02:20:05.374Z,1053.92
2017-02-15T02:21:05.392Z,1053.91
2017-02-15T02:22:05.345Z,1053.88
2017-02-15T02:23:05.325Z,1053.86
2017-02-15T02:24:05.308Z,1053.85
2017-02-15T02:25:05.296Z,1053.85
2017-02-15T02:26:05.279Z,1053.84
2017-02-15T02:27:05.262Z,1053.83
2017-02-15T02:28:05.245Z,1053.8
2017-02-15T02:29:05.231Z,1053.82
2017-02-15T02:30:05.212Z,1053.79
2017-02-15T02:31:05.194Z,1053.78
2017-02-15T02:32:05.207Z,1053.74
2017-02-15T02:33:05.162Z,1053.73
2017-02-15T02:34:05.142Z,1053.73
2017-02-15T02:35:05.129Z,1053.71
2017-02-15T02:36:05.112Z,1053.72
2017-02-15T02:37:05.094Z,1053.71
2017-02-15T02:38:05.077Z,1053.72
2017-02-15T02:39:05.058Z,1053.7
2017-02-15T02:40:05.041Z,1053.72
2017-02-15T02:41:05.028Z,1053.72
2017-02-15T02:42:05.007Z,1053.73
2017-02-15T02:43:04.991Z,1053.73
2017-02-15T02:44:04.978Z,1053.74
2017-02-15T02:45:04.961Z,1053.74
2017-02-15T02:46:04.944Z,1053.74
2017-02-15T02:47:04.925Z,1053.78
2017-02-15T02:48:04.911Z,1053.8
2017-02-15T02:49:04.894Z,1053.82
2017-02-15T02:50:04.878Z,1053.8
2017-02-15T02:51:04.858Z,1053.79
2017-02-15T02:52:04.841Z,1053.79
2017-02-15T02:53:04.824Z,1053.81
2017-02-15T02:54:04.810Z,1053.82
2017-02-15T02:55:04.791Z,1053.8
2017-02-15T02:56:04.778Z,1053.81
2017-02-15T02:57:04.761Z,1053.81
2017-02-15T02:58:04.741Z,1053.8
2017-02-15T02:59:04.725Z,1053.87
2017-02-15T03:00:04.711Z,1053.88
2017-02-15T03:01:04.695Z,1053.9
2017-02-15T03:02:04.681Z,1053.9
2017-02-15T03:03:04.660Z,1053.94
2017-02-15T03:04:04.641Z,1053.94
2017-02-15T03:05:04.625Z,1053.99
2017-02-15T03:06:04.612Z,1054
2017-02-15T03:07:04.590Z,1054.06
2017-02-15T03:08:04.576Z,1054.07
2017-02-15T03:09:04.561Z,1054.11
2017-02-15T03:10:04.541Z,1054.07
2017-02-15T03:11:04.523Z,1054.14
2017-02-15T03:12:04.508Z,1054.14
2017-02-15T03:13:04.491Z,1054.14
2017-02-15T03:14:04.475Z,1054.15
2017-02-15T03:15:04.462Z,1054.1
2017-02-15T03:16:04.440Z,1054.13
2017-02-15T03:17:04.425Z,1054.11
2017-02-15T03:18:04.407Z,1054.1
2017-02-15T03:19:04.394Z,1054.09
2017-02-15T03:20:04.373Z,1054.12
2017-02-15T03:21:04.360Z,1054.1
2017-02-15T03:22:04.341Z,1054.12
2017-02-15T03:23:04.332Z,1054.06
2017-02-15T03:24:04.313Z,1054.12
2017-02-15T03:25:04.292Z,1054.15
2017-02-15T03:26:04.274Z,1054.14
2017-02-15T03:27:04.259Z,1054.17
2017-02-15T03:28:04.240Z,1054.16
2017-02-15T03:29:04.223Z,1054.17
2017-02-15T03:30:04.207Z,1054.2
2017-02-15T03:31:04.192Z,1054.22
2017-02-15T03:32:04.173Z,1054.24
2017-02-15T03:33:04.159Z,1054.23
2017-02-15T03:34:04.142Z,1054.21
2017-02-15T03:35:04.123Z,1054.2
2017-02-15T03:36:04.108Z,1054.2
2017-02-15T03:37:04.089Z,1054.23
2017-02-15T03:38:04.075Z,1054.19
2017-02-15T03:39:04.056Z,1054.22
2017-02-15T03:40:04.077Z,1054.21
2017-02-15T03:41:04.021Z,1054.18
2017-02-15T03:42:04.032Z,1054.19
2017-02-15T03:43:03.991Z,1054.2
2017-02-15T03:44:03.973Z,1054.2
2017-02-15T03:45:03.957Z,1054.2
2017-02-15T03:46:03.936Z,1054.17
2017-02-15T03:47:03.922Z,1054.18
2017-02-15T03:48:03.905Z,1054.2
2017-02-15T03:49:03.918Z,1054.19
2017-02-15T03:50:03.871Z,1054.19
2017-02-15T03:51:03.851Z,1054.22
2017-02-15T03:52:03.837Z,1054.25
2017-02-15T03:53:03.822Z,1054.25
2017-02-15T03:54:03.801Z,1054.22
2017-02-15T03:55:03.788Z,1054.25
2017-02-15T03:56:03.771Z,1054.25
2017-02-15T03:57:03.751Z,1054.24
2017-02-15T03:58:03.734Z,1054.22
2017-02-15T03:59:03.721Z,1054.27
2017-02-15T04:00:03.700Z,1054.25
2017-02-15T04:01:03.687Z,1054.26
2017-02-15T04:02:03.670Z,1054.23
2017-02-15T04:03:03.651Z,1054.24
2017-02-15T04:04:03.634Z,1054.19
2017-02-15T04:05:03.619Z,1054.16
2017-02-15T04:06:03.603Z,1054.22
2017-02-15T04:07:03.587Z,1054.23
2017-02-15T04:08:03.566Z,1054.19
2017-02-15T04:09:03.549Z,1054.26
2017-02-15T04:10:03.534Z,1054.18
2017-02-15T04:11:03.518Z,1054.27
2017-02-15T04:12:03.497Z,1054.23
2017-02-15T04:13:03.481Z,1054.19
2017-02-15T04:14:03.464Z,1054.24
2017-02-15T04:15:03.447Z,1054.22
2017-02-15T04:16:03.433Z,1054.24
2017-02-15T04:17:03.413Z,1054.2
2017-02-15T04:18:03.398Z,1054.23
2017-02-15T04:19:03.382Z,1054.17
2017-02-15T04:20:03.366Z,1054.18
2017-02-15T04:21:03.350Z,1054.19
2017-02-15T04:22:03.331Z,1054.21
2017-02-15T04:23:03.311Z,1054.2
2017-02-15T04:24:03.299Z,1054.21
2017-02-15T04:25:03.277Z,1054.22
2017-02-15T04:26:03.260Z,1054.22
2017-02-15T04:27:03.247Z,1054.24
2017-02-15T04:28:03.230Z,1054.23
2017-02-15T04:29:03.210Z,1054.25
2017-02-15T04:30:03.196Z,1054.24
2017-02-15T04:31:03.175Z,1054.21
2017-02-15T04:32:03.159Z,1054.22
2017-02-15T04:33:03.144Z,1054.21
2017-02-15T04:34:03.127Z,1054.2
2017-02-15T04:35:03.110Z,1054.21
2017-02-15T04:36:03.091Z,1054.21
2017-02-15T04:37:03.078Z,1054.2
2017-02-15T04:38:03.060Z,1054.24
2017-02-15T04:39:03.042Z,1054.24
2017-02-15T04:40:03.026Z,1054.26
2017-02-15T04:41:03.009Z,1054.24
2017-02-15T04:42:02.990Z,1054.26
2017-02-15T04:43:02.972Z,1054.25
2017-02-15T04:44:02.958Z,1054.26
2017-02-15T04:45:02.938Z,1054.24
2017-02-15T04:46:02.921Z,1054.25
2017-02-15T04:47:02.903Z,1054.24
2017-02-15T04:48:02.890Z,1054.29
2017-02-15T04:49:02.868Z,1054.27
2017-02-15T04:50:02.854Z,1054.28
2017-02-15T04:51:02.835Z,1054.32
2017-02-15T04:52:02.819Z,1054.34
2017-02-15T04:53:02.805Z,1054.3
2017-02-15T04:54:02.784Z,1054.32
2017-02-15T04:55:02.767Z,1054.32
2017-02-15T04:56:02.753Z,1054.32
2017-02-15T04:57:02.736Z,1054.3
2017-02-15T04:58:02.716Z,1054.32
2017-02-15T04:59:02.702Z,1054.3
2017-02-15T05:00:02.685Z,1054.26
2017-02-15T05:01:02.665Z,1054.28
2017-02-15T05:02:02.647Z,1054.31
2017-02-15T05:03:02.633Z,1054.27
2017-02-15T05:04:02.619Z,1054.26
2017-02-15T05:05:02.602Z,1054.28
2017-02-15T05:06:02.579Z,1054.28
2017-02-15T05:07:02.561Z,1054.31
2017-02-15T05:08:02.545Z,1054.29
2017-02-15T05:09:02.531Z,1054.31
2017-02-15T05:10:02.517Z,1054.34
2017-02-15T05:11:02.496Z,1054.32
2017-02-15T05:12:02.476Z,1054.37
2017-02-15T05:13:02.459Z,1054.36
2017-02-15T05:14:02.446Z,1054.33
2017-02-15T05:15:02.427Z,1054.33
2017-02-15T05:16:02.408Z,1054.32
2017-02-15T05:17:02.391Z,1054.31
2017-02-15T05:18:02.376Z,1054.34
2017-02-15T05:19:02.359Z,1054.4
2017-02-15T05:20:02.342Z,1054.39
2017-02-15T05:21:02.326Z,1054.37
2017-02-15T05:22:02.304Z,1054.41
2017-02-15T05:23:02.287Z,1054.34
2017-02-15T05:24:02.270Z,1054.37
2017-02-15T05:25:02.254Z,1054.35
2017-02-15T05:26:02.236Z,1054.36
2017-02-15T05:27:02.219Z,1054.35
2017-02-15T05:28:02.202Z,1054.37
2017-02-15T05:29:02.187Z,1054.41
2017-02-15T05:30:02.172Z,1054.41
2017-02-15T05:31:02.150Z,1054.39
2017-02-15T05:32:02.133Z,1054.43
2017-02-15T05:33:02.116Z,1054.4
2017-02-15T05:34:02.101Z,1054.44
2017-02-15T05:35:02.087Z,1054.42
2017-02-15T05:36:02.064Z,1054.41
2017-02-15T05:37:02.050Z,1054.44
2017-02-15T05:38:02.030Z,1054.45
2017-02-15T05:39:02.016Z,1054.47
2017-02-15T05:40:01.995Z,1054.45
2017-02-15T05:41:01.978Z,1054.43
2017-02-15T05:42:01.992Z,1054.4
2017-02-15T05:43:01.947Z,1054.43
2017-02-15T05:44:01.929Z,1054.43
2017-02-15T05:45:01.913Z,1054.44
2017-02-15T05:46:01.895Z,1054.45
2017-02-15T05:47:01.874Z,1054.42
2017-02-15T05:48:01.856Z,1054.43
2017-02-15T05:49:01.840Z,1054.44
2017-02-15T05:50:01.824Z,1054.44
2017-02-15T05:51:01.806Z,1054.46
2017-02-15T05:52:01.792Z,1054.51
2017-02-15T05:53:01.773Z,1054.47
2017-02-15T05:54:01.758Z,1054.45
2017-02-15T05:55:01.739Z,1054.52
2017-02-15T05:56:01.718Z,1054.49
2017-02-15T05:57:01.705Z,1054.45
2017-02-15T05:58:01.688Z,1054.47
2017-02-15T05:59:01.667Z,1054.45
2017-02-15T06:00:01.653Z,1054.45
2017-02-15T06:01:01.633Z,1054.46
2017-02-15T06:02:01.618Z,1054.47
2017-02-15T06:03:01.601Z,1054.46
2017-02-15T06:04:01.584Z,1054.47
2017-02-15T06:05:01.567Z,1054.48
2017-02-15T06:06:01.549Z,1054.48
2017-02-15T06:07:01.532Z,1054.44
2017-02-15T06:08:01.512Z,1054.41
2017-02-15T06:09:01.499Z,1054.43
2017-02-15T06:10:01.477Z,1054.45
2017-02-15T06:11:01.461Z,1054.4
2017-02-15T06:12:01.445Z,1054.41
2017-02-15T06:13:01.428Z,1054.43
2017-02-15T06:14:01.408Z,1054.42
2017-02-15T06:15:01.394Z,1054.4
2017-02-15T06:16:01.375Z,1054.4
2017-02-15T06:17:01.357Z,1054.4
2017-02-15T06:18:01.339Z,1054.4
2017-02-15T06:19:01.325Z,1054.42
2017-02-15T06:20:01.304Z,1054.37
2017-02-15T06:21:01.290Z,1054.45
2017-02-15T06:22:01.273Z,1054.43
2017-02-15T06:23:01.256Z,1054.44
2017-02-15T06:24:01.237Z,1054.47
2017-02-15T06:25:01.218Z,1054.47
2017-02-15T06:26:01.204Z,1054.5
2017-02-15T06:27:01.187Z,1054.48
2017-02-15T06:28:01.166Z,1054.47
2017-02-15T06:29:01.150Z,1054.48
2017-02-15T06:30:01.131Z,1054.49
2017-02-15T06:31:01.122Z,1054.45
2017-02-15T06:32:01.100Z,1054.42
2017-02-15T06:33:01.083Z,1054.43
2017-02-15T06:34:01.062Z,1054.41
2017-02-15T06:35:01.047Z,1054.39
2017-02-15T06:36:01.031Z,1054.37
2017-02-15T06:37:01.013Z,1054.38
2017-02-15T06:38:00.996Z,1054.32
2017-02-15T06:39:00.976Z,1054.34
2017-02-15T06:40:00.962Z,1054.3
2017-02-15T06:41:00.942Z,1054.31
2017-02-15T06:42:00.924Z,1054.33
2017-02-15T06:43:00.907Z,1054.3
2017-02-15T06:44:00.890Z,1054.37
2017-02-15T06:45:00.877Z,1054.3
2017-02-15T06:46:00.859Z,1054.34
2017-02-15T06:47:00.843Z,1054.34
2017-02-15T06:48:00.822Z,1054.32
2017-02-15T06:49:00.806Z,1054.28
2017-02-15T06:50:00.791Z,1054.22
2017-02-15T06:51:00.773Z,1054.21
2017-02-15T06:52:00.757Z,1054.22
2017-02-15T06:53:00.740Z,1054.17
2017-02-15T06:54:00.720Z,1054.03
2017-02-15T06:55:00.703Z,1053.94
2017-02-15T06:56:00.687Z,1053.77
2017-02-15T06:57:00.672Z,1053.59
2017-02-15T06:58:00.658Z,1053.42
2017-02-15T06:59:00.647Z,1053.27
2017-02-15T07:00:00.625Z,1053.14
2017-02-15T07:01:00.605Z,1052.97
2017-02-15T07:02:00.590Z,1052.79
2017-02-15T07:03:00.573Z,1052.63
2017-02-15T07:04:00.556Z,1052.44
2017-02-15T07:05:00.541Z,1052.29
2017-02-15T07:06:00.523Z,1052.11
2017-02-15T07:07:00.508Z,1051.93
2017-02-15T07:08:00.493Z,1051.71
2017-02-15T07:09:00.478Z,1051.57
2017-02-15T07:10:00.459Z,1051.37
2017-02-15T07:11:00.446Z,1051.19
2017-02-15T07:12:00.429Z,1051.05
2017-02-15T07:13:00.417Z,1050.94
2017-02-15T07:14:00.400Z,1050.8
2017-02-15T07:15:00.386Z,1050.68
2017-02-15T07:16:00.373Z,1050.62
2017-02-15T07:17:00.357Z,1050.54
2017-02-15T07:18:00.343Z,1050.46
2017-02-15T07:19:00.328Z,1050.42
2017-02-15T07:20:00.310Z,1050.36
2017-02-15T07:21:00.299Z,1050.35
2017-02-15T07:22:00.284Z,1050.35
2017-02-15T07:23:00.270Z,1050.31
2017-02-15T07:24:00.258Z,1050.35
2017-02-15T07:25:00.244Z,1050.31
2017-02-15T07:26:00.225Z,1050.35
2017-02-15T07:27:00.213Z,1050.29
2017-02-15T07:28:00.200Z,1050.29
2017-02-15T07:29:00.185Z,1050.28
2017-02-15T07:30:00.174Z,1050.26
2017-02-15T07:31:00.159Z,1050.3
2017-02-15T07:32:00.145Z,1050.27
2017-02-15T07:33:00.135Z,1050.33
2017-02-15T07:34:00.117Z,1050.38
2017-02-15T07:35:00.104Z,1050.36
2017-02-15T07:36:00.094Z,1050.27
2017-02-15T07:37:00.077Z,1050.28
2017-02-15T07:38:00.064Z,1050.17
2017-02-15T07:39:00.052Z,1049.98
2017-02-15T07:40:00.038Z,1049.89
2017-02-15T07:41:00.028Z,1049.82
2017-02-15T07:42:00.013Z,1049.69
2017-02-15T07:42:59.998Z,1049.64
2017-02-15T07:43:59.988Z,1049.66
2017-02-15T07:44:59.975Z,1049.5
2017-02-15T07:45:59.961Z,1049.43
2017-02-15T07:46:59.950Z,1049.38
2017-02-15T07:47:59.934Z,1049.5
2017-02-15T07:48:59.922Z,1049.6
2017-02-15T07:49:59.911Z,1049.78
2017-02-15T07:50:59.896Z,1049.98
2017-02-15T07:51:59.885Z,1050.12
2017-02-15T07:52:59.870Z,1050.24
2017-02-15T07:53:59.859Z,1050.35
2017-02-15T07:54:59.847Z,1050.47
2017-02-15T07:55:59.832Z,1050.58
2017-02-15T07:56:59.822Z,1050.66
2017-02-15T07:57:59.808Z,1050.73
2017-02-15T07:58:59.797Z,1050.81
2017-02-15T07:59:59.780Z,1050.86
2017-02-15T08:00:59.772Z,1050.95
2017-02-15T08:01:59.757Z,1051.01
2017-02-15T08:02:59.746Z,1051.07
2017-02-15T08:03:59.729Z,1051.13
2017-02-15T08:04:59.717Z,1051.17
2017-02-15T08:05:59.706Z,1051.21
2017-02-15T08:06:59.690Z,1051.27
2017-02-15T08:07:59.681Z,1051.24
2017-02-15T08:08:59.669Z,1051.27
2017-02-15T08:09:59.651Z,1051.31
2017-02-15T08:10:59.638Z,1051.35
2017-02-15T08:11:59.625Z,1051.32
2017-02-15T08:12:59.616Z,1051.36
2017-02-15T08:13:59.599Z,1051.36
2017-02-15T08:14:59.585Z,1051.32
2017-02-15T08:15:59.575Z,1051.34
2017-02-15T08:16:59.561Z,1051.39
2017-02-15T08:17:59.549Z,1051.38
2017-02-15T08:18:59.534Z,1051.42
2017-02-15T08:19:59.521Z,1051.41
2017-02-15T08:20:59.505Z,1051.42
2017-02-15T08:21:59.494Z,1051.44
2017-02-15T08:22:59.481Z,1051.44
2017-02-15T08:23:59.466Z,1051.4
2017-02-15T08:24:59.452Z,1051.42
2017-02-15T08:25:59.441Z,1051.4
2017-02-15T08:26:59.425Z,1051.36
2017-02-15T08:27:59.412Z,1051.33
2017-02-15T08:28:59.397Z,1051.34
2017-02-15T08:29:59.387Z,1051.32
2017-02-15T08:30:59.374Z,1051.35
2017-02-15T08:31:59.360Z,1051.35
2017-02-15T08:32:59.344Z,1051.35
2017-02-15T08:33:59.333Z,1051.34
2017-02-15T08:34:59.320Z,1051.34
2017-02-15T08:35:59.305Z,1051.33
2017-02-15T08:36:59.289Z,1051.3
2017-02-15T08:37:59.279Z,1051.32
2017-02-15T08:38:59.265Z,1051.34
2017-02-15T08:39:59.249Z,1051.34
2017-02-15T08:40:59.236Z,1051.37
2017-02-15T08:41:59.222Z,1051.4
2017-02-15T08:42:59.210Z,1051.45
2017-02-15T08:43:59.197Z,1051.43
2017-02-15T08:44:59.183Z,1051.48
2017-02-15T08:45:59.170Z,1051.43
2017-02-15T08:46:59.157Z,1051.43
2017-02-15T08:47:59.141Z,1051.34
2017-02-15T08:48:59.131Z,1051.2
2017-02-15T08:49:59.118Z,1051.13
2017-02-15T08:50:59.103Z,1051.02
2017-02-15T08:51:59.087Z,1050.94
2017-02-15T08:52:59.077Z,1050.9
2017-02-15T08:53:59.064Z,1050.91
2017-02-15T08:54:59.051Z,1050.9
2017-02-15T08:55:59.036Z,1050.95
2017-02-15T08:56:59.024Z,1050.96
2017-02-15T08:57:59.006Z,1050.94
2017-02-15T08:58:58.993Z,1050.99
2017-02-15T08:59:58.981Z,1050.99
2017-02-15T09:00:58.970Z,1051.02
2017-02-15T09:01:58.956Z,1051.04
2017-02-15T09:02:58.940Z,1051.06
2017-02-15T09:03:58.933Z,1051.08
2017-02-15T09:04:58.947Z,1051
2017-02-15T09:05:58.904Z,1050.96
2017-02-15T09:06:58.887Z,1050.83
2017-02-15T09:07:58.879Z,1050.78
2017-02-15T09:08:58.861Z,1050.73
2017-02-15T09:09:58.851Z,1050.66
2017-02-15T09:10:58.835Z,1050.61
2017-02-15T09:11:58.821Z,1050.61
2017-02-15T09:12:58.813Z,1050.58
2017-02-15T09:13:58.800Z,1050.52
2017-02-15T09:14:58.787Z,1050.53
2017-02-15T09:15:58.774Z,1050.52
2017-02-15T09:16:58.758Z,1050.47
2017-02-15T09:17:58.749Z,1050.48
2017-02-15T09:18:58.734Z,1050.48
2017-02-15T09:19:58.719Z,1050.47
2017-02-15T09:20:58.710Z,1050.44
2017-02-15T09:21:58.698Z,1050.38
2017-02-15T09:22:58.680Z,1050.36
2017-02-15T09:23:58.668Z,1050.32
2017-02-15T09:24:58.656Z,1050.25
2017-02-15T09:25:58.651Z,1050.23
2017-02-15T09:26:58.634Z,1050.17
2017-02-15T09:27:58.618Z,1050.14
2017-02-15T09:28:58.609Z,1050.06
2017-02-15T09:29:58.596Z,1050.03
2017-02-15T09:30:58.583Z,1050.05
2017-02-15T09:31:58.571Z,1050
2017-02-15T09:32:58.559Z,1050
2017-02-15T09:33:58.543Z,1049.98
2017-02-15T09:34:58.534Z,1049.92
2017-02-15T09:35:58.521Z,1049.91
2017-02-15T09:36:58.509Z,1049.87
2017-02-15T09:37:58.499Z,1049.83
2017-02-15T09:38:58.482Z,1049.74
2017-02-15T09:39:58.469Z,1049.66
2017-02-15T09:40:58.460Z,1049.65
2017-02-15T09:41:58.447Z,1049.64
2017-02-15T09:42:58.436Z,1049.61
2017-02-15T09:43:58.421Z,1049.61
2017-02-15T09:44:58.408Z,1049.61
2017-02-15T09:45:58.396Z,1049.55
2017-02-15T09:46:58.388Z,1049.55
2017-02-15T09:47:58.376Z,1049.56
2017-02-15T09:48:58.361Z,1049.54
2017-02-15T09:49:58.348Z,1049.51
2017-02-15T09:50:58.339Z,1049.44
2017-02-15T09:51:58.327Z,1049.38
2017-02-15T09:52:58.316Z,1049.35
2017-02-15T09:53:58.303Z,1049.31
2017-02-15T09:54:58.289Z,1049.29
2017-02-15T09:55:58.277Z,1049.28
2017-02-15T09:56:58.269Z,1049.21
2017-02-15T09:57:58.254Z,1049.18
2017-02-15T09:58:58.246Z,1049.17
2017-02-15T09:59:58.230Z,1049.12
2017-02-15T10:00:58.222Z,1049.05
2017-02-15T10:01:58.208Z,1049.07
2017-02-15T10:02:58.194Z,1049.05
2017-02-15T10:03:58.183Z,1049.01
2017-02-15T10:04:58.176Z,1049
2017-02-15T10:05:58.167Z,1048.98
2017-02-15T10:06:58.150Z,1048.96
2017-02-15T10:07:58.140Z,1048.86
2017-02-15T10:08:58.131Z,1048.85
2017-02-15T10:09:58.119Z,1048.76
2017-02-15T10:10:58.105Z,1048.69
2017-02-15T10:11:58.094Z,1048.65
2017-02-15T10:12:58.083Z,1048.62
2017-02-15T10:13:58.074Z,1048.61
2017-02-15T10:14:58.063Z,1048.54
2017-02-15T10:15:58.052Z,1048.54
2017-02-15T10:16:58.042Z,1048.5
2017-02-15T10:17:58.030Z,1048.45
2017-02-15T10:18:58.016Z,1048.51
2017-02-15T10:19:58.009Z,1048.46
2017-02-15T10:20:57.995Z,1048.43
2017-02-15T10:21:57.988Z,1048.37
2017-02-15T10:22:57.976Z,1048.38
2017-02-15T10:23:57.967Z,1048.3
2017-02-15T10:24:57.952Z,1048.24
2017-02-15T10:25:57.942Z,1048.18
2017-02-15T10:26:57.935Z,1048.19
2017-02-15T10:27:57.926Z,1048.13
2017-02-15T10:28:57.913Z,1048.13
2017-02-15T10:29:57.899Z,1048.09
2017-02-15T10:30:57.897Z,1048.09
2017-02-15T10:31:57.877Z,1048.07
2017-02-15T10:32:57.871Z,1048.03
2017-02-15T10:33:57.862Z,1048
2017-02-15T10:34:57.848Z,1047.97
2017-02-15T10:35:57.840Z,1047.96
2017-02-15T10:36:57.830Z,1047.91
2017-02-15T10:37:57.820Z,1047.91
2017-02-15T10:38:57.808Z,1047.89
2017-02-15T10:39:57.800Z,1047.81
2017-02-15T10:40:57.791Z,1047.78
2017-02-15T10:41:57.781Z,1047.77
2017-02-15T10:42:57.765Z,1047.75
2017-02-15T10:43:57.759Z,1047.75
2017-02-15T10:44:57.748Z,1047.71
2017-02-15T10:45:57.737Z,1047.66
2017-02-15T10:46:57.726Z,1047.65
2017-02-15T10:47:57.717Z,1047.62
2017-02-15T10:48:57.708Z,1047.57
2017-02-15T10:49:57.701Z,1047.57
2017-02-15T10:50:57.688Z,1047.55
2017-02-15T10:51:57.678Z,1047.54
2017-02-15T10:52:57.668Z,1047.51
2017-02-15T10:53:57.659Z,1047.46
2017-02-15T10:54:57.650Z,1047.43
2017-02-15T10:55:57.642Z,1047.39
2017-02-15T10:56:57.632Z,1047.4
2017-02-15T10:57:57.620Z,1047.4
2017-02-15T10:58:57.612Z,1047.38
2017-02-15T10:59:57.601Z,1047.32
2017-02-15T11:00:57.595Z,1047.29
2017-02-15T11:01:57.584Z,1047.26
2017-02-15T11:02:57.575Z,1047.2
2017-02-15T11:03:57.566Z,1047.21
2017-02-15T11:04:57.556Z,1047.2
2017-02-15T11:05:57.544Z,1047.14
2017-02-15T11:06:57.539Z,1047.11
2017-02-15T11:07:57.526Z,1047.08
2017-02-15T11:08:57.518Z,1047.07
2017-02-15T11:09:57.510Z,1047.04
2017-02-15T11:10:57.503Z,1047.01
2017-02-15T11:11:57.492Z,1046.97
2017-02-15T11:12:57.480Z,1046.93
2017-02-15T11:13:57.471Z,1046.94
2017-02-15T11:14:57.462Z,1046.93
2017-02-15T11:15:57.455Z,1046.9
2017-02-15T11:16:57.445Z,1046.86
2017-02-15T11:17:57.437Z,1046.83
2017-02-15T11:18:57.430Z,1046.82
2017-02-15T11:19:57.419Z,1046.79
2017-02-15T11:20:57.407Z,1046.72
2017-02-15T11:21:57.402Z,1046.73
2017-02-15T11:22:57.388Z,1046.72
2017-02-15T11:23:57.381Z,1046.72
2017-02-15T11:24:57.372Z,1046.72
2017-02-15T11:25:57.365Z,1046.68
2017-02-15T11:26:57.356Z,1046.69
2017-02-15T11:27:57.348Z,1046.7
2017-02-15T11:28:57.336Z,1046.69
2017-02-15T11:29:57.328Z,1046.68
2017-02-15T11:30:57.322Z,1046.69
2017-02-15T11:31:57.313Z,1046.69
2017-02-15T11:32:57.302Z,1046.72
2017-02-15T11:33:57.296Z,1046.66
2017-02-15T11:34:57.284Z,1046.69
2017-02-15T11:35:57.279Z,1046.62
2017-02-15T11:36:57.267Z,1046.65
2017-02-15T11:37:57.260Z,1046.61
2017-02-15T11:38:57.249Z,1046.56
2017-02-15T11:39:57.243Z,1046.56
2017-02-15T11:40:57.232Z,1046.52
2017-02-15T11:41:57.225Z,1046.53
2017-02-15T11:42:57.219Z,1046.44
2017-02-15T11:43:57.211Z,1046.48
2017-02-15T11:44:57.202Z,1046.45
2017-02-15T11:45:57.193Z,1046.44
2017-02-15T11:46:57.181Z,1046.4
2017-02-15T11:47:57.177Z,1046.4
2017-02-15T11:48:57.164Z,1046.35
2017-02-15T11:49:57.157Z,1046.34
2017-02-15T11:50:57.148Z,1046.35
2017-02-15T11:51:57.143Z,1046.29
2017-02-15T11:52:57.130Z,1046.26
2017-02-15T11:53:57.126Z,1046.29
2017-02-15T11:54:57.119Z,1046.25
2017-02-15T11:55:57.107Z,1046.21
2017-02-15T11:56:57.101Z,1046.2
2017-02-15T11:57:57.091Z,1046.21
2017-02-15T11:58:57.083Z,1046.18
2017-02-15T11:59:57.079Z,1046.2
2017-02-15T12:00:57.070Z,1046.17
2017-02-15T12:01:57.059Z,1046.16
2017-02-15T12:02:57.054Z,1046.12
2017-02-15T12:03:57.046Z,1046.11
2017-02-15T12:04:57.035Z,1046.06
2017-02-15T12:05:57.028Z,1046.09
2017-02-15T12:06:57.019Z,1046.06
2017-02-15T12:07:57.009Z,1046.04